Time;durP1;ratioP1;P1;durP2;ratioP2;P2;SDS_P1;SDS_P2;PMS_P1;PMS_P2;Temp;Humidity;BMP_temperature;BMP_pressure;BME280_temperature;BME280_humidity;BME280_pressure;Samples;Min_cycle;Max_cycle;Signal;HPM_P1;HPM_P2
2023/04/08 00:01:39;;;;;;;22.23;11.53;;;;;;;-150.27;100.00;61272.81;5070126;29;20037;-82
2023/04/08 00:04:13;;;;;;;30.73;10.97;;;;;;;-150.27;100.00;61272.81;5068278;29;20413;-81
2023/04/08 00:06:44;;;;;;;24.10;12.47;;;;;;;-150.27;100.00;61272.81;5073430;29;20468;-80
2023/04/08 00:09:16;;;;;;;25.30;11.83;;;;;;;-150.27;100.00;61272.81;5072824;29;20719;-80
2023/04/08 00:11:47;;;;;;;26.30;12.07;;;;;;;-150.27;100.00;61272.81;5073769;29;20029;-82
2023/04/08 00:14:18;;;;;;;24.00;11.43;;;;;;;-150.27;100.00;61272.81;5073713;29;20040;-72
2023/04/08 00:16:50;;;;;;;23.07;13.10;;;;;;;-150.27;100.00;61272.81;5073548;29;20088;-78
2023/04/08 00:19:21;;;;;;;29.37;11.33;;;;;;;-150.27;100.00;61272.81;5073384;29;20433;-75
2023/04/08 00:21:52;;;;;;;26.27;12.63;;;;;;;-150.27;100.00;61272.81;5067583;29;20108;-76
2023/04/08 00:24:24;;;;;;;26.27;12.67;;;;;;;-150.27;100.00;61272.81;5053723;29;20025;-78
2023/04/08 00:26:55;;;;;;;28.23;12.10;;;;;;;-150.27;100.00;61272.81;5056518;29;20086;-79
2023/04/08 00:29:26;;;;;;;29.83;12.07;;;;;;;-150.27;100.00;61272.81;5039100;29;20125;-70
2023/04/08 00:31:57;;;;;;;22.07;11.73;;;;;;;-150.27;100.00;61272.81;5054919;29;20030;-77
2023/04/08 00:34:29;;;;;;;26.20;13.13;;;;;;;-150.27;100.00;61272.81;5061696;29;20035;-81
2023/04/08 00:37:00;;;;;;;25.57;12.40;;;;;;;-150.27;100.00;61272.81;5071301;29;20032;-72
2023/04/08 00:39:31;;;;;;;22.73;13.47;;;;;;;-150.27;100.00;61272.81;5063585;29;20061;-79
2023/04/08 00:42:03;;;;;;;21.87;13.10;;;;;;;-150.27;100.00;61272.81;5066384;29;20033;-77
2023/04/08 00:44:34;;;;;;;25.30;13.63;;;;;;;-150.27;100.00;61272.81;5055858;29;20026;-75
2023/04/08 00:47:06;;;;;;;27.73;14.23;;;;;;;-150.27;100.00;61272.81;5063514;29;20027;-71
2023/04/08 00:49:37;;;;;;;24.23;13.03;;;;;;;-150.27;100.00;61272.81;5075381;29;20043;-77
2023/04/08 00:52:09;;;;;;;29.90;14.33;;;;;;;-150.27;100.00;61272.81;5056803;29;20523;-79
2023/04/08 00:54:40;;;;;;;28.63;16.03;;;;;;;-150.27;100.00;61272.81;5074989;29;20052;-70
2023/04/08 00:57:12;;;;;;;29.03;14.50;;;;;;;-150.27;100.00;61272.81;5074105;29;20389;-80
2023/04/08 00:59:43;;;;;;;27.53;13.87;;;;;;;-150.27;100.00;61272.81;5057568;29;20076;-79
2023/04/08 01:02:27;;;;;;;25.27;14.00;;;;;;;-150.27;100.00;61272.81;5062512;29;20042;-80
2023/04/08 01:05:10;;;;;;;31.27;16.70;;;;;;;-150.27;100.00;61272.81;5055507;29;20474;-77
2023/04/08 01:07:49;;;;;;;32.07;16.23;;;;;;;-150.27;100.00;61272.81;5062063;29;20036;-77
2023/04/08 01:10:30;;;;;;;26.57;16.37;;;;;;;-150.27;100.00;61272.81;5069626;29;20022;-71
2023/04/08 01:13:08;;;;;;;37.17;17.03;;;;;;;-150.27;100.00;61272.81;5057220;29;20033;-74
2023/04/08 01:15:41;;;;;;;28.27;17.63;;;;;;;-150.27;100.00;61272.81;5050781;29;20514;-75
2023/04/08 01:18:14;;;;;;;34.23;18.30;;;;;;;-150.27;100.00;61272.81;5054774;29;20023;-78
2023/04/08 01:20:48;;;;;;;31.73;18.50;;;;;;;-150.27;100.00;61272.81;5039229;29;20017;-80
2023/04/08 01:23:40;;;;;;;30.05;17.55;;;;;;;-150.27;100.00;61272.81;5037990;29;20029;-80
2023/04/08 01:26:20;;;;;;;42.83;21.33;;;;;;;-150.27;100.00;61272.81;5038230;29;20042;-79
2023/04/08 01:28:58;;;;;;;42.43;20.07;;;;;;;-150.27;100.00;61272.81;5069890;29;20029;-73
2023/04/08 01:31:30;;;;;;;35.63;20.70;;;;;;;-150.27;100.00;61272.81;5074239;29;20033;-79
2023/04/08 01:34:05;;;;;;;33.23;20.43;;;;;;;-150.27;100.00;61272.81;5056975;29;20043;-80
2023/04/08 01:36:38;;;;;;;35.65;20.52;;;;;;;-150.27;100.00;61272.81;5073894;29;20543;-74
2023/04/08 01:39:10;;;;;;;37.17;20.67;;;;;;;-150.27;100.00;61272.81;5066488;29;20097;-79
2023/04/08 01:41:42;;;;;;;34.83;22.60;;;;;;;-150.27;100.00;61272.81;5058164;29;20105;-78
2023/04/08 01:44:14;;;;;;;43.40;22.50;;;;;;;-150.27;100.00;61272.81;5054946;29;20113;-77
2023/04/08 01:46:47;;;;;;;36.63;20.77;;;;;;;-150.27;100.00;61272.81;5054494;29;20495;-79
2023/04/08 01:49:19;;;;;;;38.03;20.53;;;;;;;-150.27;100.00;61272.81;5068588;29;20037;-79
2023/04/08 01:51:52;;;;;;;34.27;22.37;;;;;;;-150.27;100.00;61272.81;5056967;29;20397;-79
2023/04/08 01:54:23;;;;;;;37.23;23.20;;;;;;;-150.27;100.00;61272.81;5071289;29;20046;-79
2023/04/08 01:56:56;;;;;;;45.73;24.57;;;;;;;-150.27;100.00;61272.81;5073968;29;20037;-76
2023/04/08 01:59:30;;;;;;;41.50;23.57;;;;;;;-150.27;100.00;61272.81;5056411;29;20397;-74
2023/04/08 02:02:05;;;;;;;37.90;22.20;;;;;;;-150.27;100.00;61272.81;5069752;29;20446;-75
2023/04/08 02:04:37;;;;;;;33.17;22.87;;;;;;;-150.27;100.00;61272.81;5054109;29;20669;-80
2023/04/08 02:07:08;;;;;;;37.97;23.07;;;;;;;-150.27;100.00;61272.81;5063932;29;20035;-69
2023/04/08 02:09:40;;;;;;;35.57;22.87;;;;;;;-150.27;100.00;61272.81;5071371;29;20033;-79
2023/04/08 02:12:12;;;;;;;37.47;23.33;;;;;;;-150.27;100.00;61272.81;5062246;29;20466;-80
2023/04/08 02:14:44;;;;;;;45.60;24.43;;;;;;;-150.27;100.00;61272.81;5072972;29;20025;-68
2023/04/08 02:17:32;;;;;;;36.37;23.23;;;;;;;-150.27;100.00;61272.81;5061463;29;20096;-81
2023/04/08 02:20:10;;;;;;;39.27;22.37;;;;;;;-150.27;100.00;61272.81;5053861;29;20037;-72
2023/04/08 02:23:33;;;;;;;40.47;23.70;;;;;;;-150.27;100.00;61272.81;5053874;29;20462;-78
2023/04/08 02:26:11;;;;;;;39.90;25.57;;;;;;;-150.27;100.00;61272.81;5022086;29;20045;-71
2023/04/08 02:28:43;;;;;;;41.50;23.83;;;;;;;-150.27;100.00;61272.81;5060297;29;20577;-74
2023/04/08 02:31:16;;;;;;;34.57;23.73;;;;;;;-150.27;100.00;61272.81;5073503;29;20037;-72
2023/04/08 02:33:50;;;;;;;39.33;24.27;;;;;;;-150.27;100.00;61272.81;5073059;29;20307;-78
2023/04/08 02:36:22;;;;;;;33.55;23.48;;;;;;;-150.27;100.00;61272.81;5073509;29;20434;-78
2023/04/08 02:38:53;;;;;;;39.17;25.70;;;;;;;-150.27;100.00;61272.81;5072599;29;20120;-79
2023/04/08 02:41:28;;;;;;;39.97;25.10;;;;;;;-150.27;100.00;61272.81;5072451;29;20040;-69
2023/04/08 02:43:59;;;;;;;39.93;25.67;;;;;;;-150.27;100.00;61272.81;5057860;29;20035;-73
2023/04/08 02:46:31;;;;;;;37.50;24.53;;;;;;;-150.27;100.00;61272.81;5072727;29;20037;-75
2023/04/08 02:49:02;;;;;;;37.87;27.03;;;;;;;-150.27;100.00;61272.81;5072592;29;20041;-80
2023/04/08 02:51:34;;;;;;;38.30;25.70;;;;;;;-150.27;100.00;61272.81;5039580;29;20497;-79
2023/04/08 02:54:05;;;;;;;44.97;27.00;;;;;;;-150.27;100.00;61272.81;5060372;29;20588;-73
2023/04/08 02:56:36;;;;;;;45.23;27.40;;;;;;;-150.27;100.00;61272.81;5061121;29;20045;-77
2023/04/08 02:59:08;;;;;;;45.40;26.53;;;;;;;-150.27;100.00;61272.81;5072159;29;20037;-79
2023/04/08 03:01:39;;;;;;;38.43;27.40;;;;;;;-150.27;100.00;61272.81;5047799;29;20080;-74
2023/04/08 03:04:10;;;;;;;36.57;27.23;;;;;;;-150.27;100.00;61272.81;5053457;29;20229;-76
2023/04/08 03:06:41;;;;;;;40.67;27.27;;;;;;;-150.27;100.00;61272.81;5035975;29;20056;-77
2023/04/08 03:09:13;;;;;;;46.63;26.97;;;;;;;-150.27;100.00;61272.81;5053316;29;20509;-76
2023/04/08 03:11:44;;;;;;;42.40;28.40;;;;;;;-150.27;100.00;61272.81;5053204;29;20065;-80
2023/04/08 03:14:16;;;;;;;40.47;29.00;;;;;;;-150.27;100.00;61272.81;5065010;29;20757;-78
2023/04/08 03:16:48;;;;;;;41.37;28.07;;;;;;;-150.27;100.00;61272.81;5073139;29;20031;-77
2023/04/08 03:19:19;;;;;;;44.20;30.03;;;;;;;-150.27;100.00;61272.81;5072482;29;20083;-79
2023/04/08 03:21:50;;;;;;;55.47;30.43;;;;;;;-150.27;100.00;61272.81;5072026;29;20035;-74
2023/04/08 03:24:22;;;;;;;49.80;29.57;;;;;;;-150.27;100.00;61272.81;5072254;29;20029;-75
2023/04/08 03:26:53;;;;;;;49.23;30.67;;;;;;;-150.27;100.00;61272.81;5072519;29;20032;-79
2023/04/08 03:29:24;;;;;;;48.93;29.53;;;;;;;-150.27;100.00;61272.81;5072600;29;20120;-74
2023/04/08 03:31:56;;;;;;;45.70;31.07;;;;;;;-150.27;100.00;61272.81;5072151;29;20234;-79
2023/04/08 03:34:27;;;;;;;50.43;30.23;;;;;;;-150.27;100.00;61272.81;5072418;29;20041;-75
2023/04/08 03:36:58;;;;;;;51.77;30.97;;;;;;;-150.27;100.00;61272.81;5071153;29;20044;-74
2023/04/08 03:39:30;;;;;;;55.23;30.03;;;;;;;-150.27;100.00;61272.81;5072792;29;20033;-79
2023/04/08 03:42:02;;;;;;;53.00;29.53;;;;;;;-150.27;100.00;61272.81;5073079;29;20037;-79
2023/04/08 03:44:33;;;;;;;52.13;32.70;;;;;;;-150.27;100.00;61272.81;5072246;29;20060;-68
2023/04/08 03:47:04;;;;;;;55.37;32.63;;;;;;;-150.27;100.00;61272.81;5072396;29;20027;-77
2023/04/08 03:49:35;;;;;;;56.10;32.57;;;;;;;-150.27;100.00;61272.81;5070046;29;20034;-78
2023/04/08 03:52:07;;;;;;;51.67;31.23;;;;;;;-150.27;100.00;61272.81;5052099;29;20029;-73
2023/04/08 03:54:38;;;;;;;51.80;30.53;;;;;;;-150.27;100.00;61272.81;5052667;29;20057;-79
2023/04/08 03:57:10;;;;;;;62.00;31.93;;;;;;;-150.27;100.00;61272.81;5052603;29;20044;-79
2023/04/08 03:59:42;;;;;;;55.73;29.60;;;;;;;-150.27;100.00;61272.81;5052139;29;20235;-77
2023/04/08 04:02:13;;;;;;;50.80;30.77;;;;;;;-150.27;100.00;61272.81;5068744;29;20124;-79
2023/04/08 04:04:44;;;;;;;52.40;30.40;;;;;;;-150.27;100.00;61272.81;5070608;29;20476;-77
2023/04/08 04:07:15;;;;;;;42.67;27.63;;;;;;;-150.27;100.00;61272.81;5074003;29;20049;-77
2023/04/08 04:09:47;;;;;;;46.57;29.90;;;;;;;-150.27;100.00;61272.81;5058646;29;20795;-70
2023/04/08 04:12:18;;;;;;;53.03;29.83;;;;;;;-150.27;100.00;61272.81;5075648;29;20758;-71
2023/04/08 04:14:50;;;;;;;46.83;30.03;;;;;;;-150.27;100.00;61272.81;5075773;29;20056;-75
2023/04/08 04:17:21;;;;;;;50.07;29.73;;;;;;;-150.27;100.00;61272.81;5075082;29;20036;-77
2023/04/08 04:19:52;;;;;;;49.37;30.13;;;;;;;-150.27;100.00;61272.81;5075736;29;20101;-70
2023/04/08 04:22:23;;;;;;;48.37;29.43;;;;;;;-150.27;100.00;61272.81;5075157;29;20029;-74
2023/04/08 04:24:55;;;;;;;56.57;30.47;;;;;;;-150.27;100.00;61272.81;5074441;29;20029;-77
2023/04/08 04:27:26;;;;;;;49.40;29.87;;;;;;;-150.27;100.00;61272.81;5075292;29;20029;-69
2023/04/08 04:29:59;;;;;;;55.13;31.87;;;;;;;-150.27;100.00;61272.81;5074847;29;20029;-74
2023/04/08 04:32:30;;;;;;;51.87;32.30;;;;;;;-150.27;100.00;61272.81;5075709;29;20029;-78
2023/04/08 04:35:02;;;;;;;56.17;32.07;;;;;;;-150.27;100.00;61272.81;5075329;29;20040;-74
2023/04/08 04:37:33;;;;;;;58.80;34.77;;;;;;;-150.27;100.00;61272.81;5057185;29;20119;-73
2023/04/08 04:40:05;;;;;;;61.03;33.67;;;;;;;-150.27;100.00;61272.81;5075199;29;20037;-77
2023/04/08 04:42:36;;;;;;;54.10;34.83;;;;;;;-150.27;100.00;61272.81;5075091;29;20124;-75
2023/04/08 04:45:08;;;;;;;67.03;35.03;;;;;;;-150.27;100.00;61272.81;5075298;29;20056;-71
2023/04/08 04:47:40;;;;;;;53.27;33.57;;;;;;;-150.27;100.00;61272.81;5075309;29;20025;-78
2023/04/08 04:50:11;;;;;;;60.87;35.33;;;;;;;-150.27;100.00;61272.81;5074513;29;20377;-73
2023/04/08 04:52:42;;;;;;;65.80;35.70;;;;;;;-150.27;100.00;61272.81;5057330;29;20427;-78
2023/04/08 04:55:14;;;;;;;61.30;36.77;;;;;;;-150.27;100.00;61272.81;5057860;29;20389;-75
2023/04/08 04:57:46;;;;;;;69.37;38.53;;;;;;;-150.27;100.00;61272.81;5075136;29;20113;-75
2023/04/08 05:00:17;;;;;;;69.97;39.10;;;;;;;-150.27;100.00;61272.81;5075114;29;20037;-77
2023/04/08 05:02:48;;;;;;;65.40;38.27;;;;;;;-150.27;100.00;61272.81;5074978;29;20037;-75
2023/04/08 05:05:19;;;;;;;63.43;35.50;;;;;;;-150.27;100.00;61272.81;5057955;29;20033;-77
2023/04/08 05:07:51;;;;;;;62.07;33.40;;;;;;;-150.27;100.00;61272.81;5073589;29;20048;-75
2023/04/08 05:10:22;;;;;;;63.60;36.43;;;;;;;-150.27;100.00;61272.81;5074402;29;20041;-75
2023/04/08 05:12:53;;;;;;;59.63;34.10;;;;;;;-150.27;100.00;61272.81;5075136;29;20637;-70
2023/04/08 05:15:25;;;;;;;58.60;33.17;;;;;;;-150.27;100.00;61272.81;5074165;29;20045;-77
2023/04/08 05:17:56;;;;;;;51.17;33.10;;;;;;;-150.27;100.00;61272.81;5066290;29;20043;-69
2023/04/08 05:20:27;;;;;;;49.33;32.00;;;;;;;-150.27;100.00;61272.81;5064370;29;20477;-77
2023/04/08 05:22:59;;;;;;;50.17;31.33;;;;;;;-150.27;100.00;61272.81;5067041;29;20044;-77
2023/04/08 05:25:30;;;;;;;53.60;31.80;;;;;;;-150.27;100.00;61272.81;5070011;29;20488;-75
2023/04/08 05:28:02;;;;;;;46.17;29.50;;;;;;;-150.27;100.00;61272.81;5062959;29;20037;-78
2023/04/08 05:30:33;;;;;;;43.53;29.63;;;;;;;-150.27;100.00;61272.81;5042861;29;20077;-70
2023/04/08 05:33:05;;;;;;;50.77;30.80;;;;;;;-150.27;100.00;61272.81;5073866;29;20037;-72
2023/04/08 05:35:36;;;;;;;52.97;29.53;;;;;;;-150.27;100.00;61272.81;5074681;29;20049;-77
2023/04/08 05:38:07;;;;;;;44.93;29.20;;;;;;;-150.27;100.00;61272.81;5062759;29;20033;-78
2023/04/08 05:40:39;;;;;;;52.50;28.73;;;;;;;-150.27;100.00;61272.81;5062889;29;20124;-77
2023/04/08 05:43:10;;;;;;;43.83;28.70;;;;;;;-150.27;100.00;61272.81;5055501;29;20088;-73
2023/04/08 05:45:41;;;;;;;47.73;29.10;;;;;;;-150.27;100.00;61272.81;5072929;29;20036;-76
2023/04/08 05:48:13;;;;;;;39.90;27.77;;;;;;;-150.27;100.00;61272.81;5060407;29;20431;-74
2023/04/08 05:50:45;;;;;;;46.30;28.30;;;;;;;-150.27;100.00;61272.81;5053642;29;20049;-78
2023/04/08 05:53:16;;;;;;;54.10;28.50;;;;;;;-150.27;100.00;61272.81;5035964;29;20061;-77
2023/04/08 05:55:48;;;;;;;39.33;25.47;;;;;;;-150.27;100.00;61272.81;5053692;29;20042;-78
2023/04/08 05:58:19;;;;;;;41.43;28.57;;;;;;;-150.27;100.00;61272.81;5057808;29;20724;-78
2023/04/08 06:00:50;;;;;;;43.47;28.37;;;;;;;-150.27;100.00;61272.81;5063564;29;20441;-74
2023/04/08 06:03:21;;;;;;;48.53;30.40;;;;;;;-150.27;100.00;61272.81;5073188;29;20025;-71
2023/04/08 06:05:53;;;;;;;46.47;29.50;;;;;;;-150.27;100.00;61272.81;5059486;29;20033;-76
2023/04/08 06:08:24;;;;;;;38.87;27.77;;;;;;;-150.27;100.00;61272.81;5053314;29;20127;-76
2023/04/08 06:10:55;;;;;;;43.83;29.00;;;;;;;-150.27;100.00;61272.81;5038047;29;20048;-78
2023/04/08 06:13:27;;;;;;;35.00;27.97;;;;;;;-150.27;100.00;61272.81;5054198;29;20426;-72
2023/04/08 06:15:58;;;;;;;40.90;28.83;;;;;;;-150.27;100.00;61272.81;5070919;29;20056;-70
2023/04/08 06:18:29;;;;;;;40.43;30.13;;;;;;;-150.27;100.00;61272.81;5056868;29;20470;-79
2023/04/08 06:21:01;;;;;;;41.70;29.17;;;;;;;-150.27;100.00;61272.81;5073310;29;20080;-79
2023/04/08 06:23:32;;;;;;;38.60;29.57;;;;;;;-150.27;100.00;61272.81;5072173;29;20065;-75
2023/04/08 06:26:04;;;;;;;33.37;26.80;;;;;;;-150.27;100.00;61272.81;5072534;29;20037;-73
2023/04/08 06:28:35;;;;;;;40.17;26.83;;;;;;;-150.27;100.00;61272.81;5071603;29;20029;-79
2023/04/08 06:31:06;;;;;;;36.07;26.97;;;;;;;-150.27;100.00;61272.81;5069291;29;20515;-73
2023/04/08 06:33:38;;;;;;;35.63;25.63;;;;;;;-150.27;100.00;61272.81;5053919;29;20089;-77
2023/04/08 06:36:10;;;;;;;30.00;26.30;;;;;;;-150.27;100.00;61272.81;5052611;29;20143;-70
2023/04/08 06:38:41;;;;;;;34.63;25.73;;;;;;;-150.27;100.00;61272.81;5054003;29;20033;-74
2023/04/08 06:41:12;;;;;;;28.97;25.10;;;;;;;-150.27;100.00;61272.81;5072317;29;20392;-73
2023/04/08 06:43:43;;;;;;;22.17;19.47;;;;;;;-150.27;100.00;61272.81;5071257;29;20404;-75
2023/04/08 06:46:15;;;;;;;22.23;19.50;;;;;;;-150.27;100.00;61272.81;5073367;29;20041;-72
2023/04/08 06:48:46;;;;;;;25.20;20.20;;;;;;;-150.27;100.00;61272.81;5071687;29;20366;-81
2023/04/08 06:51:17;;;;;;;27.03;22.83;;;;;;;-150.27;100.00;61272.81;5070872;29;20033;-76
2023/04/08 06:53:49;;;;;;;27.03;22.53;;;;;;;-150.27;100.00;61272.81;5070971;29;20398;-75
2023/04/08 06:56:21;;;;;;;26.67;20.77;;;;;;;-150.27;100.00;61272.81;5067082;29;20113;-79
2023/04/08 06:58:53;;;;;;;24.80;22.10;;;;;;;-150.27;100.00;61272.81;5072847;29;20548;-73
2023/04/08 07:01:24;;;;;;;27.43;21.90;;;;;;;-150.27;100.00;61272.81;5071853;29;20028;-77
2023/04/08 07:03:56;;;;;;;23.57;21.07;;;;;;;-150.27;100.00;61272.81;5072610;29;20489;-80
2023/04/08 07:06:27;;;;;;;25.63;21.37;;;;;;;-150.27;100.00;61272.81;5071983;29;20238;-74
2023/04/08 07:08:59;;;;;;;24.07;20.30;;;;;;;-150.27;100.00;61272.81;5071587;29;20065;-80
2023/04/08 07:11:30;;;;;;;29.43;21.87;;;;;;;-150.27;100.00;61272.81;5071748;29;20040;-81
2023/04/08 07:14:01;;;;;;;25.47;20.97;;;;;;;-150.27;100.00;61272.81;5072046;29;20084;-70
2023/04/08 07:16:33;;;;;;;26.33;20.63;;;;;;;-150.27;100.00;61272.81;5056040;29;20033;-77
2023/04/08 07:19:04;;;;;;;24.43;21.70;;;;;;;-150.27;100.00;61272.81;5043121;29;20065;-78
2023/04/08 07:21:36;;;;;;;24.07;21.10;;;;;;;-150.27;100.00;61272.81;5065061;29;20433;-74
2023/04/08 07:24:08;;;;;;;24.60;19.20;;;;;;;-150.27;100.00;61272.81;5072879;29;20116;-76
2023/04/08 07:26:39;;;;;;;23.77;20.63;;;;;;;-150.27;100.00;61272.81;5063546;29;20074;-80
2023/04/08 07:29:10;;;;;;;24.03;21.37;;;;;;;-150.27;100.00;61272.81;5064374;29;20122;-74
2023/04/08 07:31:43;;;;;;;24.23;20.73;;;;;;;-150.27;100.00;61272.81;5069437;29;20033;-79
2023/04/08 07:34:15;;;;;;;24.83;21.67;;;;;;;-150.27;100.00;61272.81;5069740;29;20079;-73
2023/04/08 07:36:46;;;;;;;25.07;20.37;;;;;;;-150.27;100.00;61272.81;5069651;29;20052;-79
2023/04/08 07:39:17;;;;;;;24.07;20.97;;;;;;;-150.27;100.00;61272.81;5071048;29;20073;-79
2023/04/08 07:41:48;;;;;;;22.83;20.33;;;;;;;-150.27;100.00;61272.81;5074335;29;20028;-75
2023/04/08 07:44:20;;;;;;;23.00;20.50;;;;;;;-150.27;100.00;61272.81;5057264;29;20117;-71
2023/04/08 07:46:51;;;;;;;24.97;21.10;;;;;;;-150.27;100.00;61272.81;5073647;29;20040;-79
2023/04/08 07:49:22;;;;;;;24.63;21.17;;;;;;;-150.27;100.00;61272.81;5073889;29;20084;-77
2023/04/08 07:51:54;;;;;;;25.93;21.03;;;;;;;-150.27;100.00;61272.81;5073628;29;20425;-78
2023/04/08 07:54:25;;;;;;;26.40;21.07;;;;;;;-150.27;100.00;61272.81;5073392;29;20093;-73
2023/04/08 07:56:58;;;;;;;26.80;21.50;;;;;;;-150.27;100.00;61272.81;5073831;29;20453;-78
2023/04/08 07:59:31;;;;;;;27.30;23.37;;;;;;;-150.27;100.00;61272.81;5056328;29;20300;-79
2023/04/08 08:02:02;;;;;;;22.90;20.33;;;;;;;-150.27;100.00;61272.81;5073943;29;20464;-80
2023/04/08 08:04:33;;;;;;;23.47;21.07;;;;;;;-150.27;100.00;61272.81;5073847;29;20039;-77
2023/04/08 08:07:05;;;;;;;23.53;19.97;;;;;;;-150.27;100.00;61272.81;5072787;29;20516;-75
2023/04/08 08:09:36;;;;;;;22.97;19.63;;;;;;;-150.27;100.00;61272.81;5057078;29;20500;-77
2023/04/08 08:12:07;;;;;;;24.53;21.23;;;;;;;-150.27;100.00;61272.81;5072983;29;20362;-75
2023/04/08 08:14:38;;;;;;;28.77;21.20;;;;;;;-150.27;100.00;61272.81;5074365;29;20459;-79
2023/04/08 08:17:11;;;;;;;24.93;20.87;;;;;;;-150.27;100.00;61272.81;5073817;29;20052;-77
2023/04/08 08:19:42;;;;;;;25.47;20.73;;;;;;;-150.27;100.00;61272.81;5056380;29;20536;-77
2023/04/08 08:22:14;;;;;;;24.40;21.77;;;;;;;-150.27;100.00;61272.81;5072777;29;20288;-78
2023/04/08 08:24:46;;;;;;;20.17;17.93;;;;;;;-150.27;100.00;61272.81;5056756;29;20033;-75
2023/04/08 08:27:17;;;;;;;23.10;20.43;;;;;;;-150.27;100.00;61272.81;5073393;29;20401;-78
2023/04/08 08:29:48;;;;;;;22.83;20.20;;;;;;;-150.27;100.00;61272.81;5056585;29;20113;-78
2023/04/08 08:32:20;;;;;;;21.00;18.77;;;;;;;-150.27;100.00;61272.81;5073069;29;20031;-77
2023/04/08 08:34:51;;;;;;;22.97;20.63;;;;;;;-150.27;100.00;61272.81;5058967;29;20052;-79
2023/04/08 08:37:22;;;;;;;23.03;20.53;;;;;;;-150.27;100.00;61272.81;5075076;29;20112;-75
2023/04/08 08:39:53;;;;;;;24.90;20.60;;;;;;;-150.27;100.00;61272.81;5073200;29;20029;-73
2023/04/08 08:42:25;;;;;;;21.90;19.33;;;;;;;-150.27;100.00;61272.81;5073111;29;20504;-79
2023/04/08 08:44:56;;;;;;;23.63;19.63;;;;;;;-150.27;100.00;61272.81;5072430;29;20129;-70
2023/04/08 08:47:28;;;;;;;22.70;20.27;;;;;;;-150.27;100.00;61272.81;5073336;29;20377;-71
2023/04/08 08:49:59;;;;;;;24.40;21.33;;;;;;;-150.27;100.00;61272.81;5073470;29;20558;-79
2023/04/08 08:52:30;;;;;;;22.70;20.13;;;;;;;-150.27;100.00;61272.81;5071477;29;20048;-77
2023/04/08 08:55:02;;;;;;;24.93;22.23;;;;;;;-150.27;100.00;61272.81;5072733;29;20054;-75
2023/04/08 08:57:33;;;;;;;28.10;23.20;;;;;;;-150.27;100.00;61272.81;5072947;29;20033;-74
2023/04/08 09:00:05;;;;;;;26.53;22.60;;;;;;;-150.27;100.00;61272.81;5072493;29;20112;-79
2023/04/08 09:02:36;;;;;;;29.07;24.57;;;;;;;-150.27;100.00;61272.81;5072865;29;20044;-76
2023/04/08 09:05:08;;;;;;;27.70;24.30;;;;;;;-150.27;100.00;61272.81;5061920;29;20029;-78
2023/04/08 09:07:40;;;;;;;29.47;23.73;;;;;;;-150.27;100.00;61272.81;5065967;29;20035;-76
2023/04/08 09:10:11;;;;;;;25.97;23.03;;;;;;;-150.27;100.00;61272.81;5061589;29;20021;-82
2023/04/08 09:12:57;;;;;;;24.83;21.37;;;;;;;-150.27;100.00;61272.81;5056358;29;20048;-79
2023/04/08 09:15:28;;;;;;;25.57;21.87;;;;;;;-150.27;100.00;61272.81;5067969;29;20049;-74
2023/04/08 09:17:59;;;;;;;26.67;22.57;;;;;;;-150.27;100.00;61272.81;5071968;29;20045;-74
2023/04/08 09:20:31;;;;;;;26.60;23.03;;;;;;;-150.27;100.00;61272.81;5069001;29;20041;-76
2023/04/08 09:23:03;;;;;;;27.50;24.07;;;;;;;-150.27;100.00;61272.81;5056764;29;20037;-74
2023/04/08 09:25:34;;;;;;;27.47;23.23;;;;;;;-150.27;100.00;61272.81;5038786;29;20713;-76
2023/04/08 09:28:18;;;;;;;29.50;25.93;;;;;;;-150.27;100.00;61272.81;5071951;29;20029;-75
2023/04/08 09:30:49;;;;;;;26.33;23.50;;;;;;;-150.27;100.00;61272.81;5072596;29;20025;-74
2023/04/08 09:33:29;;;;;;;26.27;22.53;;;;;;;-150.27;100.00;61272.81;5072027;29;20168;-75
2023/04/08 09:36:01;;;;;;;25.07;22.40;;;;;;;-150.27;100.00;61272.81;5071397;29;20036;-78
2023/04/08 09:38:32;;;;;;;24.73;22.07;;;;;;;-150.27;100.00;61272.81;5071992;29;20088;-73
2023/04/08 09:41:07;;;;;;;24.03;21.60;;;;;;;-150.27;100.00;61272.81;5069748;29;20037;-74
2023/04/08 09:43:57;;;;;;;25.87;23.13;;;;;;;-150.27;100.00;61272.81;5056868;29;20052;-78
2023/04/08 09:46:59;;;;;;;24.63;21.93;;;;;;;-150.27;100.00;61272.81;5063129;29;20081;-77
2023/04/08 09:49:43;;;;;;;25.97;22.50;;;;;;;-150.27;100.00;61272.81;5039638;29;20050;-76
2023/04/08 09:52:32;;;;;;;25.83;22.83;;;;;;;-150.27;100.00;61272.81;5070077;29;20572;-79
2023/04/08 09:55:07;;;;;;;24.33;21.73;;;;;;;-150.27;100.00;61272.81;5052206;29;20536;-73
2023/04/08 09:57:42;;;;;;;24.43;21.93;;;;;;;-150.27;100.00;61272.81;5057608;29;20037;-77
2023/04/08 10:00:16;;;;;;;23.20;20.80;;;;;;;-150.27;100.00;61272.81;5064657;29;20147;-71
2023/04/08 10:03:13;;;;;;;22.83;20.47;;;;;;;-150.27;100.00;61272.81;5044178;29;20091;-79
2023/04/08 10:05:46;;;;;;;22.37;20.07;;;;;;;-150.27;100.00;61272.81;5052636;29;20773;-75
2023/04/08 10:08:17;;;;;;;22.50;20.10;;;;;;;-150.27;100.00;61272.81;5071543;29;20037;-79
2023/04/08 10:10:49;;;;;;;23.60;21.20;;;;;;;-150.27;100.00;61272.81;5071251;29;20039;-75
2023/04/08 10:13:21;;;;;;;23.13;20.70;;;;;;;-150.27;100.00;61272.81;5052087;29;20041;-74
2023/04/08 10:16:19;;;;;;;22.67;20.37;;;;;;;-150.27;100.00;61272.81;5070326;29;20193;-76
2023/04/08 10:18:57;;;;;;;21.93;19.83;;;;;;;-150.27;100.00;61272.81;5071509;29;20059;-74
2023/04/08 10:21:36;;;;;;;22.43;20.23;;;;;;;-150.27;100.00;61272.81;5069242;29;20396;-71
2023/04/08 10:24:09;;;;;;;23.83;21.43;;;;;;;-150.27;100.00;61272.81;5065512;29;20033;-75
2023/04/08 10:26:42;;;;;;;22.27;19.97;;;;;;;-150.27;100.00;61272.81;5034205;29;20096;-76
2023/04/08 10:29:16;;;;;;;21.47;19.40;;;;;;;-150.27;100.00;61272.81;5064033;29;20060;-74
2023/04/08 10:31:49;;;;;;;22.35;20.00;;;;;;;-150.27;100.00;61272.81;5054139;29;20029;-74
2023/04/08 10:34:26;;;;;;;22.30;19.97;;;;;;;-150.27;100.00;61272.81;5070509;29;20061;-76
2023/04/08 10:36:58;;;;;;;22.30;20.13;;;;;;;-150.27;100.00;61272.81;5053545;29;20051;-72
2023/04/08 10:39:30;;;;;;;20.63;18.63;;;;;;;-150.27;100.00;61272.81;5059371;29;20038;-78
2023/04/08 10:42:01;;;;;;;20.03;18.03;;;;;;;-150.27;100.00;61272.81;5062227;29;20548;-73
2023/04/08 10:44:32;;;;;;;21.73;19.60;;;;;;;-150.27;100.00;61272.81;5051781;29;20035;-77
2023/04/08 10:47:04;;;;;;;20.77;18.87;;;;;;;-150.27;100.00;61272.81;5062981;29;20033;-77
2023/04/08 10:49:35;;;;;;;21.87;19.77;;;;;;;-150.27;100.00;61272.81;5070719;29;20036;-75
2023/04/08 10:52:07;;;;;;;21.70;19.50;;;;;;;-150.27;100.00;61272.81;5069511;29;20025;-76
2023/04/08 10:54:45;;;;;;;21.10;18.93;;;;;;;-150.27;100.00;61272.81;5070579;29;20041;-77
2023/04/08 10:57:23;;;;;;;22.40;20.07;;;;;;;-150.27;100.00;61272.81;5070306;29;20049;-76
2023/04/08 10:59:55;;;;;;;22.43;20.13;;;;;;;-150.27;100.00;61272.81;5069491;29;20304;-74
2023/04/08 11:02:32;;;;;;;19.67;17.77;;;;;;;-150.27;100.00;61272.81;5068729;29;20043;-72
2023/04/08 11:05:04;;;;;;;21.10;18.77;;;;;;;-150.27;100.00;61272.81;5064223;29;20544;-79
2023/04/08 11:07:41;;;;;;;20.57;18.60;;;;;;;-150.27;100.00;61272.81;5068034;29;20025;-74
2023/04/08 11:10:12;;;;;;;20.23;18.33;;;;;;;-150.27;100.00;61272.81;5066335;29;20029;-76
2023/04/08 11:12:44;;;;;;;20.93;18.80;;;;;;;-150.27;100.00;61272.81;5067319;29;20037;-78
2023/04/08 11:15:16;;;;;;;20.63;18.60;;;;;;;-150.27;100.00;61272.81;5068786;29;20029;-80
2023/04/08 11:17:48;;;;;;;20.93;18.73;;;;;;;-150.27;100.00;61272.81;5069673;29;20040;-72
2023/04/08 11:20:20;;;;;;;20.67;18.67;;;;;;;-150.27;100.00;61272.81;5067973;29;20424;-80